sensor_id;sensor_type;location;lat;lon;timestamp;pressure;altitude;pressure_sealevel;temperature
67599;BMP280;62026;39.230;9.122;2023-04-03T00:00:44;100348.34;;;12.91
67599;BMP280;62026;39.230;9.122;2023-04-03T00:03:10;100340.78;;;12.94
67599;BMP280;62026;39.230;9.122;2023-04-03T00:05:36;100344.00;;;12.96
67599;BMP280;62026;39.230;9.122;2023-04-03T00:08:03;100335.69;;;12.93
67599;BMP280;62026;39.230;9.122;2023-04-03T00:10:30;100329.81;;;12.91
67599;BMP280;62026;39.230;9.122;2023-04-03T00:12:56;100330.31;;;12.88
67599;BMP280;62026;39.230;9.122;2023-04-03T00:15:22;100324.50;;;12.91
67599;BMP280;62026;39.230;9.122;2023-04-03T00:17:48;100323.72;;;12.90
67599;BMP280;62026;39.230;9.122;2023-04-03T00:20:14;100322.34;;;12.88
67599;BMP280;62026;39.230;9.122;2023-04-03T00:22:40;100320.50;;;12.88
67599;BMP280;62026;39.230;9.122;2023-04-03T00:25:07;100316.81;;;12.89
67599;BMP280;62026;39.230;9.122;2023-04-03T00:27:36;100313.13;;;12.90
67599;BMP280;62026;39.230;9.122;2023-04-03T00:30:03;100303.59;;;12.89
67599;BMP280;62026;39.230;9.122;2023-04-03T00:32:29;100309.13;;;12.88
67599;BMP280;62026;39.230;9.122;2023-04-03T00:34:55;100304.84;;;12.87
67599;BMP280;62026;39.230;9.122;2023-04-03T00:37:21;100306.69;;;12.86
67599;BMP280;62026;39.230;9.122;2023-04-03T00:39:47;100290.81;;;12.86
67599;BMP280;62026;39.230;9.122;2023-04-03T00:42:13;100298.94;;;12.85
67599;BMP280;62026;39.230;9.122;2023-04-03T00:47:11;100293.66;;;12.85
67599;BMP280;62026;39.230;9.122;2023-04-03T00:49:39;100288.72;;;12.88
67599;BMP280;62026;39.230;9.122;2023-04-03T00:52:14;100296.09;;;12.86
67599;BMP280;62026;39.230;9.122;2023-04-03T00:54:44;100290.22;;;12.84
67599;BMP280;62026;39.230;9.122;2023-04-03T00:57:12;100290.13;;;12.79
67599;BMP280;62026;39.230;9.122;2023-04-03T00:59:49;100288.06;;;12.81
67599;BMP280;62026;39.230;9.122;2023-04-03T01:02:16;100285.63;;;12.80
67599;BMP280;62026;39.230;9.122;2023-04-03T01:04:43;100281.16;;;12.80
67599;BMP280;62026;39.230;9.122;2023-04-03T01:07:24;100279.75;;;12.78
67599;BMP280;62026;39.230;9.122;2023-04-03T01:09:57;100280.00;;;12.76
67599;BMP280;62026;39.230;9.122;2023-04-03T01:12:32;100275.75;;;12.75
67599;BMP280;62026;39.230;9.122;2023-04-03T01:17:46;100262.50;;;12.75
67599;BMP280;62026;39.230;9.122;2023-04-03T01:25:55;100254.31;;;12.77
67599;BMP280;62026;39.230;9.122;2023-04-03T01:28:32;100253.19;;;12.72
67599;BMP280;62026;39.230;9.122;2023-04-03T01:33:59;100244.91;;;12.69
67599;BMP280;62026;39.230;9.122;2023-04-03T01:36:29;100251.22;;;12.68
67599;BMP280;62026;39.230;9.122;2023-04-03T01:38:58;100252.38;;;12.72
67599;BMP280;62026;39.230;9.122;2023-04-03T01:41:26;100239.59;;;12.69
67599;BMP280;62026;39.230;9.122;2023-04-03T01:43:57;100249.16;;;12.70
67599;BMP280;62026;39.230;9.122;2023-04-03T01:46:24;100254.44;;;12.70
67599;BMP280;62026;39.230;9.122;2023-04-03T01:48:50;100253.31;;;12.66
67599;BMP280;62026;39.230;9.122;2023-04-03T01:51:16;100248.00;;;12.66
67599;BMP280;62026;39.230;9.122;2023-04-03T01:53:43;100253.88;;;12.68
67599;BMP280;62026;39.230;9.122;2023-04-03T01:56:09;100251.22;;;12.68
67599;BMP280;62026;39.230;9.122;2023-04-03T01:58:35;100239.03;;;12.67
67599;BMP280;62026;39.230;9.122;2023-04-03T02:01:02;100248.81;;;12.66
67599;BMP280;62026;39.230;9.122;2023-04-03T02:03:29;100241.09;;;12.65
67599;BMP280;62026;39.230;9.122;2023-04-03T02:05:55;100235.34;;;12.68
67599;BMP280;62026;39.230;9.122;2023-04-03T02:08:21;100237.41;;;12.66
67599;BMP280;62026;39.230;9.122;2023-04-03T02:10:50;100231.31;;;12.65
67599;BMP280;62026;39.230;9.122;2023-04-03T02:13:17;100238.47;;;12.65
67599;BMP280;62026;39.230;9.122;2023-04-03T02:15:44;100247.44;;;12.64
67599;BMP280;62026;39.230;9.122;2023-04-03T02:18:11;100244.78;;;12.64
67599;BMP280;62026;39.230;9.122;2023-04-03T02:20:37;100236.63;;;12.65
67599;BMP280;62026;39.230;9.122;2023-04-03T02:23:04;100241.91;;;12.65
67599;BMP280;62026;39.230;9.122;2023-04-03T02:25:32;100236.63;;;12.65
67599;BMP280;62026;39.230;9.122;2023-04-03T02:27:58;100239.97;;;12.61
67599;BMP280;62026;39.230;9.122;2023-04-03T02:30:25;100244.00;;;12.63
67599;BMP280;62026;39.230;9.122;2023-04-03T02:32:51;100248.69;;;12.61
67599;BMP280;62026;39.230;9.122;2023-04-03T02:35:17;100245.25;;;12.61
67599;BMP280;62026;39.230;9.122;2023-04-03T02:37:43;100248.47;;;12.63
67599;BMP280;62026;39.230;9.122;2023-04-03T02:40:09;100252.50;;;12.65
67599;BMP280;62026;39.230;9.122;2023-04-03T02:42:37;100259.63;;;12.65
67599;BMP280;62026;39.230;9.122;2023-04-03T02:45:05;100252.72;;;12.64
67599;BMP280;62026;39.230;9.122;2023-04-03T02:47:32;100255.84;;;12.61
67599;BMP280;62026;39.230;9.122;2023-04-03T02:49:58;100257.91;;;12.59
67599;BMP280;62026;39.230;9.122;2023-04-03T02:52:24;100252.28;;;12.55
67599;BMP280;62026;39.230;9.122;2023-04-03T02:54:52;100246.66;;;12.52
67599;BMP280;62026;39.230;9.122;2023-04-03T02:57:18;100252.16;;;12.50
67599;BMP280;62026;39.230;9.122;2023-04-03T02:59:46;100246.75;;;12.45
67599;BMP280;62026;39.230;9.122;2023-04-03T03:02:12;100245.94;;;12.45
67599;BMP280;62026;39.230;9.122;2023-04-03T03:04:38;100242.50;;;12.44
67599;BMP280;62026;39.230;9.122;2023-04-03T03:07:04;100234.34;;;12.46
67599;BMP280;62026;39.230;9.122;2023-04-03T03:09:31;100234.56;;;12.44
67599;BMP280;62026;39.230;9.122;2023-04-03T03:11:58;100224.09;;;12.37
67599;BMP280;62026;39.230;9.122;2023-04-03T03:14:24;100228.97;;;12.40
67599;BMP280;62026;39.230;9.122;2023-04-03T03:16:50;100228.34;;;12.38
67599;BMP280;62026;39.230;9.122;2023-04-03T03:19:16;100228.97;;;12.40
67599;BMP280;62026;39.230;9.122;2023-04-03T03:21:42;100226.88;;;12.43
67599;BMP280;62026;39.230;9.122;2023-04-03T03:24:08;100231.00;;;12.38
67599;BMP280;62026;39.230;9.122;2023-04-03T03:26:35;100231.00;;;12.38
67599;BMP280;62026;39.230;9.122;2023-04-03T03:29:02;100230.19;;;12.38
67599;BMP280;62026;39.230;9.122;2023-04-03T03:31:28;100228.34;;;12.38
67599;BMP280;62026;39.230;9.122;2023-04-03T03:33:54;100220.41;;;12.38
67599;BMP280;62026;39.230;9.122;2023-04-03T03:36:21;100222.50;;;12.36
67599;BMP280;62026;39.230;9.122;2023-04-03T03:38:47;100224.09;;;12.37
67599;BMP280;62026;39.230;9.122;2023-04-03T03:41:13;100220.09;;;12.35
67599;BMP280;62026;39.230;9.122;2023-04-03T03:43:41;100228.84;;;12.35
67599;BMP280;62026;39.230;9.122;2023-04-03T03:46:08;100222.19;;;12.33
67599;BMP280;62026;39.230;9.122;2023-04-03T03:48:33;100221.34;;;12.32
67599;BMP280;62026;39.230;9.122;2023-04-03T03:51:00;100223.63;;;12.29
67599;BMP280;62026;39.230;9.122;2023-04-03T03:53:30;100225.63;;;12.33
67599;BMP280;62026;39.230;9.122;2023-04-03T03:56:01;100230.91;;;12.33
67599;BMP280;62026;39.230;9.122;2023-04-03T03:58:29;100233.56;;;12.33
67599;BMP280;62026;39.230;9.122;2023-04-03T04:00:55;100239.88;;;12.32
67599;BMP280;62026;39.230;9.122;2023-04-03T04:03:21;100241.00;;;12.25
67599;BMP280;62026;39.230;9.122;2023-04-03T04:05:48;100239.63;;;12.22
67599;BMP280;62026;39.230;9.122;2023-04-03T04:08:15;100244.16;;;12.22
67599;BMP280;62026;39.230;9.122;2023-04-03T04:10:42;100254.38;;;12.18
67599;BMP280;62026;39.230;9.122;2023-04-03T04:13:08;100256.09;;;12.13
67599;BMP280;62026;39.230;9.122;2023-04-03T04:15:35;100245.63;;;12.06
67599;BMP280;62026;39.230;9.122;2023-04-03T04:18:01;100249.31;;;12.05
67599;BMP280;62026;39.230;9.122;2023-04-03T04:20:27;100243.91;;;12.00
67599;BMP280;62026;39.230;9.122;2023-04-03T04:22:53;100243.78;;;11.95
67599;BMP280;62026;39.230;9.122;2023-04-03T04:25:21;100242.75;;;11.96
67599;BMP280;62026;39.230;9.122;2023-04-03T04:27:47;100235.72;;;11.90
67599;BMP280;62026;39.230;9.122;2023-04-03T04:30:14;100230.66;;;11.88
67599;BMP280;62026;39.230;9.122;2023-04-03T04:32:41;100234.56;;;11.86
67599;BMP280;62026;39.230;9.122;2023-04-03T04:35:07;100231.09;;;11.85
67599;BMP280;62026;39.230;9.122;2023-04-03T04:37:38;100238.69;;;11.82
67599;BMP280;62026;39.230;9.122;2023-04-03T04:40:05;100242.94;;;11.83
67599;BMP280;62026;39.230;9.122;2023-04-03T04:42:32;100242.13;;;11.82
67599;BMP280;62026;39.230;9.122;2023-04-03T04:44:58;100247.66;;;11.81
67599;BMP280;62026;39.230;9.122;2023-04-03T04:47:24;100253.97;;;11.80
67599;BMP280;62026;39.230;9.122;2023-04-03T04:49:50;100254.56;;;11.82
67599;BMP280;62026;39.230;9.122;2023-04-03T04:52:17;100265.13;;;11.82
67599;BMP280;62026;39.230;9.122;2023-04-03T04:54:43;100261.91;;;11.80
67599;BMP280;62026;39.230;9.122;2023-04-03T04:57:09;100266.16;;;11.81
67599;BMP280;62026;39.230;9.122;2023-04-03T04:59:36;100262.50;;;11.82
67599;BMP280;62026;39.230;9.122;2023-04-03T05:02:04;100259.84;;;11.82
67599;BMP280;62026;39.230;9.122;2023-04-03T05:04:30;100260.41;;;11.84
67599;BMP280;62026;39.230;9.122;2023-04-03T05:07:03;100263.66;;;11.86
67599;BMP280;62026;39.230;9.122;2023-04-03T05:09:33;100260.41;;;11.84
67599;BMP280;62026;39.230;9.122;2023-04-03T05:11:59;100265.72;;;11.84
67599;BMP280;62026;39.230;9.122;2023-04-03T05:14:29;100272.16;;;11.88
67599;BMP280;62026;39.230;9.122;2023-04-03T05:17:01;100275.81;;;11.87
67599;BMP280;62026;39.230;9.122;2023-04-03T05:19:29;100272.59;;;11.85
67599;BMP280;62026;39.230;9.122;2023-04-03T05:21:57;100284.78;;;11.86
67599;BMP280;62026;39.230;9.122;2023-04-03T05:24:23;100281.94;;;11.87
67599;BMP280;62026;39.230;9.122;2023-04-03T05:26:49;100280.66;;;11.90
67599;BMP280;62026;39.230;9.122;2023-04-03T05:29:15;100281.09;;;11.87
67599;BMP280;62026;39.230;9.122;2023-04-03T05:31:41;100287.22;;;11.87
67599;BMP280;62026;39.230;9.122;2023-04-03T05:34:11;100280.28;;;11.86
67599;BMP280;62026;39.230;9.122;2023-04-03T05:36:38;100285.81;;;11.85
67599;BMP280;62026;39.230;9.122;2023-04-03T05:39:07;100289.84;;;11.87
67599;BMP280;62026;39.230;9.122;2023-04-03T05:41:36;100288.47;;;11.85
67599;BMP280;62026;39.230;9.122;2023-04-03T05:44:03;100286.38;;;11.87
67599;BMP280;62026;39.230;9.122;2023-04-03T05:46:29;100285.03;;;11.84
67599;BMP280;62026;39.230;9.122;2023-04-03T05:48:57;100286.63;;;11.85
67599;BMP280;62026;39.230;9.122;2023-04-03T05:51:35;100298.16;;;11.91
67599;BMP280;62026;39.230;9.122;2023-04-03T05:54:26;100291.81;;;11.92
67599;BMP280;62026;39.230;9.122;2023-04-03T05:56:58;100292.19;;;11.95
67599;BMP280;62026;39.230;9.122;2023-04-03T05:59:25;100294.00;;;11.95
67599;BMP280;62026;39.230;9.122;2023-04-03T06:01:53;100299.31;;;11.95
67599;BMP280;62026;39.230;9.122;2023-04-03T06:04:19;100302.94;;;11.94
67599;BMP280;62026;39.230;9.122;2023-04-03T06:09:19;100311.03;;;11.99
67599;BMP280;62026;39.230;9.122;2023-04-03T06:11:45;100315.84;;;12.02
67599;BMP280;62026;39.230;9.122;2023-04-03T06:14:12;100317.25;;;12.04
67599;BMP280;62026;39.230;9.122;2023-04-03T06:16:38;100321.41;;;12.12
67599;BMP280;62026;39.230;9.122;2023-04-03T06:19:11;100329.03;;;12.20
67599;BMP280;62026;39.230;9.122;2023-04-03T06:21:41;100315.09;;;12.25
67599;BMP280;62026;39.230;9.122;2023-04-03T06:24:09;100324.44;;;12.27
67599;BMP280;62026;39.230;9.122;2023-04-03T06:26:38;100318.66;;;12.30
67599;BMP280;62026;39.230;9.122;2023-04-03T06:29:04;100322.72;;;12.33
67599;BMP280;62026;39.230;9.122;2023-04-03T06:31:30;100325.47;;;12.38
67599;BMP280;62026;39.230;9.122;2023-04-03T06:33:56;100338.03;;;12.43
67599;BMP280;62026;39.230;9.122;2023-04-03T06:36:22;100330.66;;;12.45
67599;BMP280;62026;39.230;9.122;2023-04-03T06:38:48;100330.19;;;12.48
67599;BMP280;62026;39.230;9.122;2023-04-03T06:41:15;100332.16;;;12.52
67599;BMP280;62026;39.230;9.122;2023-04-03T06:43:43;100326.63;;;12.54
67599;BMP280;62026;39.230;9.122;2023-04-03T06:46:21;100333.19;;;12.63
67599;BMP280;62026;39.230;9.122;2023-04-03T06:48:48;100333.50;;;12.78
67599;BMP280;62026;39.230;9.122;2023-04-03T06:51:28;100340.97;;;13.04
67599;BMP280;62026;39.230;9.122;2023-04-03T06:53:59;100332.75;;;13.29
67599;BMP280;62026;39.230;9.122;2023-04-03T06:56:26;100336.47;;;13.45
67599;BMP280;62026;39.230;9.122;2023-04-03T06:58:55;100349.69;;;13.57
67599;BMP280;62026;39.230;9.122;2023-04-03T07:01:28;100345.38;;;13.67
67599;BMP280;62026;39.230;9.122;2023-04-03T07:03:55;100339.28;;;13.84
67599;BMP280;62026;39.230;9.122;2023-04-03T07:06:22;100345.91;;;13.98
67599;BMP280;62026;39.230;9.122;2023-04-03T07:08:48;100339.34;;;14.17
67599;BMP280;62026;39.230;9.122;2023-04-03T07:11:15;100335.06;;;14.16
67599;BMP280;62026;39.230;9.122;2023-04-03T07:13:42;100340.00;;;14.24
67599;BMP280;62026;39.230;9.122;2023-04-03T07:16:08;100343.75;;;14.28
67599;BMP280;62026;39.230;9.122;2023-04-03T07:18:35;100347.69;;;14.43
67599;BMP280;62026;39.230;9.122;2023-04-03T07:21:03;100344.72;;;14.61
67599;BMP280;62026;39.230;9.122;2023-04-03T07:23:29;100351.81;;;14.72
67599;BMP280;62026;39.230;9.122;2023-04-03T07:25:55;100347.97;;;14.85
67599;BMP280;62026;39.230;9.122;2023-04-03T07:28:23;100348.66;;;14.97
67599;BMP280;62026;39.230;9.122;2023-04-03T07:31:05;100350.19;;;15.15
67599;BMP280;62026;39.230;9.122;2023-04-03T07:33:35;100346.34;;;15.49
67599;BMP280;62026;39.230;9.122;2023-04-03T07:36:01;100352.53;;;15.55
67599;BMP280;62026;39.230;9.122;2023-04-03T07:38:27;100350.56;;;15.72
67599;BMP280;62026;39.230;9.122;2023-04-03T07:40:54;100336.53;;;15.82
67599;BMP280;62026;39.230;9.122;2023-04-03T07:43:22;100340.78;;;15.83
67599;BMP280;62026;39.230;9.122;2023-04-03T07:45:49;100334.19;;;15.90
67599;BMP280;62026;39.230;9.122;2023-04-03T07:48:22;100336.72;;;16.07
67599;BMP280;62026;39.230;9.122;2023-04-03T07:50:49;100327.19;;;16.11
67599;BMP280;62026;39.230;9.122;2023-04-03T07:53:15;100333.38;;;16.22
67599;BMP280;62026;39.230;9.122;2023-04-03T07:55:42;100339.34;;;16.39
67599;BMP280;62026;39.230;9.122;2023-04-03T07:58:14;100337.38;;;16.29
67599;BMP280;62026;39.230;9.122;2023-04-03T08:00:40;100346.47;;;16.28
67599;BMP280;62026;39.230;9.122;2023-04-03T08:03:10;100348.66;;;16.41
67599;BMP280;62026;39.230;9.122;2023-04-03T08:05:39;100340.97;;;16.50
67599;BMP280;62026;39.230;9.122;2023-04-03T08:08:07;100346.19;;;16.77
67599;BMP280;62026;39.230;9.122;2023-04-03T08:10:33;100348.66;;;16.99
67599;BMP280;62026;39.230;9.122;2023-04-03T08:13:01;100348.19;;;17.17
67599;BMP280;62026;39.230;9.122;2023-04-03T08:15:27;100344.25;;;17.30
67599;BMP280;62026;39.230;9.122;2023-04-03T08:17:54;100348.25;;;17.58
67599;BMP280;62026;39.230;9.122;2023-04-03T08:20:20;100350.94;;;17.52
67599;BMP280;62026;39.230;9.122;2023-04-03T08:22:46;100352.53;;;17.59
67599;BMP280;62026;39.230;9.122;2023-04-03T08:25:12;100355.47;;;17.82
67599;BMP280;62026;39.230;9.122;2023-04-03T08:27:38;100346.66;;;18.02
67599;BMP280;62026;39.230;9.122;2023-04-03T08:30:05;100343.72;;;18.14
67599;BMP280;62026;39.230;9.122;2023-04-03T08:32:34;100346.09;;;18.05
67599;BMP280;62026;39.230;9.122;2023-04-03T08:35:03;100350.09;;;18.18
67599;BMP280;62026;39.230;9.122;2023-04-03T08:37:29;100336.78;;;18.08
67599;BMP280;62026;39.230;9.122;2023-04-03T08:39:55;100342.59;;;18.20
67599;BMP280;62026;39.230;9.122;2023-04-03T08:43:03;100340.38;;;18.52
67599;BMP280;62026;39.230;9.122;2023-04-03T08:45:50;100346.72;;;18.67
67599;BMP280;62026;39.230;9.122;2023-04-03T08:48:21;100349.88;;;18.89
67599;BMP280;62026;39.230;9.122;2023-04-03T08:50:57;100341.25;;;18.97
67599;BMP280;62026;39.230;9.122;2023-04-03T08:53:32;100350.59;;;18.99
67599;BMP280;62026;39.230;9.122;2023-04-03T08:56:06;100347.88;;;19.05
67599;BMP280;62026;39.230;9.122;2023-04-03T08:58:57;100342.59;;;18.99
67599;BMP280;62026;39.230;9.122;2023-04-03T09:01:38;100347.28;;;19.18
67599;BMP280;62026;39.230;9.122;2023-04-03T09:04:12;100333.06;;;19.22
67599;BMP280;62026;39.230;9.122;2023-04-03T09:06:43;100339.78;;;19.20
67599;BMP280;62026;39.230;9.122;2023-04-03T09:09:37;100336.78;;;19.26
67599;BMP280;62026;39.230;9.122;2023-04-03T09:12:24;100333.28;;;19.65
67599;BMP280;62026;39.230;9.122;2023-04-03T09:18:28;100320.28;;;19.82
67599;BMP280;62026;39.230;9.122;2023-04-03T09:21:24;100320.22;;;20.35
67599;BMP280;62026;39.230;9.122;2023-04-03T09:23:58;100321.66;;;20.27
67599;BMP280;62026;39.230;9.122;2023-04-03T09:26:33;100321.19;;;20.44
67599;BMP280;62026;39.230;9.122;2023-04-03T09:29:07;100324.50;;;20.36
67599;BMP280;62026;39.230;9.122;2023-04-03T09:31:39;100318.22;;;20.22
67599;BMP280;62026;39.230;9.122;2023-04-03T09:34:23;100303.97;;;20.50
67599;BMP280;62026;39.230;9.122;2023-04-03T09:36:56;100300.97;;;20.52
67599;BMP280;62026;39.230;9.122;2023-04-03T09:39:26;100299.13;;;20.47
67599;BMP280;62026;39.230;9.122;2023-04-03T09:42:06;100294.66;;;20.61
67599;BMP280;62026;39.230;9.122;2023-04-03T09:44:39;100290.13;;;20.80
67599;BMP280;62026;39.230;9.122;2023-04-03T09:47:31;100293.34;;;21.15
67599;BMP280;62026;39.230;9.122;2023-04-03T09:52:49;100282.72;;;20.91
67599;BMP280;62026;39.230;9.122;2023-04-03T09:55:21;100283.44;;;20.97
67599;BMP280;62026;39.230;9.122;2023-04-03T09:57:58;100277.97;;;21.02
67599;BMP280;62026;39.230;9.122;2023-04-03T10:00:37;100284.44;;;21.33
67599;BMP280;62026;39.230;9.122;2023-04-03T10:03:04;100270.44;;;21.04
67599;BMP280;62026;39.230;9.122;2023-04-03T10:05:39;100276.19;;;21.30
67599;BMP280;62026;39.230;9.122;2023-04-03T10:10:44;100276.63;;;21.18
67599;BMP280;62026;39.230;9.122;2023-04-03T10:13:20;100261.19;;;21.56
67599;BMP280;62026;39.230;9.122;2023-04-03T10:16:03;100264.09;;;21.46
67599;BMP280;62026;39.230;9.122;2023-04-03T10:18:46;100250.06;;;21.49
67599;BMP280;62026;39.230;9.122;2023-04-03T10:24:41;100254.28;;;21.22
67599;BMP280;62026;39.230;9.122;2023-04-03T10:28:12;100251.41;;;21.19
67599;BMP280;62026;39.230;9.122;2023-04-03T10:33:34;100239.88;;;20.67
67599;BMP280;62026;39.230;9.122;2023-04-03T10:41:39;100230.03;;;20.44
67599;BMP280;62026;39.230;9.122;2023-04-03T10:47:31;100225.06;;;20.14
67599;BMP280;62026;39.230;9.122;2023-04-03T10:53:41;100217.97;;;20.23
67599;BMP280;62026;39.230;9.122;2023-04-03T10:56:15;100213.78;;;20.17
67599;BMP280;62026;39.230;9.122;2023-04-03T10:59:47;100208.63;;;19.96
67599;BMP280;62026;39.230;9.122;2023-04-03T11:02:04;100201.72;;;19.95
67599;BMP280;62026;39.230;9.122;2023-04-03T11:04:39;100198.38;;;19.61
67599;BMP280;62026;39.230;9.122;2023-04-03T11:07:16;100200.75;;;19.86
67599;BMP280;62026;39.230;9.122;2023-04-03T11:09:49;100195.41;;;19.86
67599;BMP280;62026;39.230;9.122;2023-04-03T11:12:27;100200.53;;;19.59
67599;BMP280;62026;39.230;9.122;2023-04-03T11:14:56;100193.16;;;19.46
67599;BMP280;62026;39.230;9.122;2023-04-03T11:17:35;100185.59;;;19.53
67599;BMP280;62026;39.230;9.122;2023-04-03T11:20:17;100182.03;;;19.33
67599;BMP280;62026;39.230;9.122;2023-04-03T11:22:57;100182.56;;;19.35
67599;BMP280;62026;39.230;9.122;2023-04-03T11:25:26;100178.75;;;19.42
67599;BMP280;62026;39.230;9.122;2023-04-03T11:28:02;100164.41;;;19.56
67599;BMP280;62026;39.230;9.122;2023-04-03T11:34:08;100154.97;;;19.35
67599;BMP280;62026;39.230;9.122;2023-04-03T11:36:59;100148.16;;;19.24
67599;BMP280;62026;39.230;9.122;2023-04-03T11:39:31;100145.63;;;19.09
67599;BMP280;62026;39.230;9.122;2023-04-03T11:42:15;100138.88;;;19.16
67599;BMP280;62026;39.230;9.122;2023-04-03T11:44:42;100134.63;;;19.10
67599;BMP280;62026;39.230;9.122;2023-04-03T11:47:11;100140.59;;;19.02
67599;BMP280;62026;39.230;9.122;2023-04-03T11:50:40;100136.78;;;19.08
67599;BMP280;62026;39.230;9.122;2023-04-03T12:05:52;100112.41;;;19.15
67599;BMP280;62026;39.230;9.122;2023-04-03T12:16:43;100106.47;;;19.18
67599;BMP280;62026;39.230;9.122;2023-04-03T12:19:35;100105.91;;;19.21
67599;BMP280;62026;39.230;9.122;2023-04-03T12:24:33;100100.41;;;19.36
67599;BMP280;62026;39.230;9.122;2023-04-03T12:46:52;100084.13;;;19.27
67599;BMP280;62026;39.230;9.122;2023-04-03T12:49:42;100088.25;;;19.20
67599;BMP280;62026;39.230;9.122;2023-04-03T12:52:32;100080.50;;;19.18
67599;BMP280;62026;39.230;9.122;2023-04-03T12:55:01;100088.59;;;19.13
67599;BMP280;62026;39.230;9.122;2023-04-03T12:57:30;100081.28;;;19.19
67599;BMP280;62026;39.230;9.122;2023-04-03T12:59:57;100089.50;;;19.27
67599;BMP280;62026;39.230;9.122;2023-04-03T13:02:32;100077.44;;;19.30
67599;BMP280;62026;39.230;9.122;2023-04-03T13:05:16;100072.59;;;19.32
67599;BMP280;62026;39.230;9.122;2023-04-03T13:07:43;100079.38;;;19.24
67599;BMP280;62026;39.230;9.122;2023-04-03T13:10:18;100070.38;;;19.15
67599;BMP280;62026;39.230;9.122;2023-04-03T13:12:53;100065.09;;;19.10
67599;BMP280;62026;39.230;9.122;2023-04-03T13:15:26;100062.41;;;19.10
67599;BMP280;62026;39.230;9.122;2023-04-03T13:17:54;100060.59;;;19.06
67599;BMP280;62026;39.230;9.122;2023-04-03T13:20:31;100063.28;;;19.06
67599;BMP280;62026;39.230;9.122;2023-04-03T13:23:08;100059.22;;;19.08
67599;BMP280;62026;39.230;9.122;2023-04-03T13:25:42;100058.09;;;19.14
67599;BMP280;62026;39.230;9.122;2023-04-03T13:28:18;100064.44;;;19.18
67599;BMP280;62026;39.230;9.122;2023-04-03T13:31:34;100080.59;;;19.08
67599;BMP280;62026;39.230;9.122;2023-04-03T13:41:49;100089.81;;;18.97
67599;BMP280;62026;39.230;9.122;2023-04-03T13:47:21;100094.16;;;19.17
67599;BMP280;62026;39.230;9.122;2023-04-03T13:50:17;100113.84;;;19.26
67599;BMP280;62026;39.230;9.122;2023-04-03T13:52:52;100126.72;;;19.00
67599;BMP280;62026;39.230;9.122;2023-04-03T13:55:33;100109.09;;;18.94
67599;BMP280;62026;39.230;9.122;2023-04-03T13:58:20;100110.75;;;18.90
67599;BMP280;62026;39.230;9.122;2023-04-03T14:01:07;100118.31;;;18.83
67599;BMP280;62026;39.230;9.122;2023-04-03T14:03:57;100114.00;;;18.82
67599;BMP280;62026;39.230;9.122;2023-04-03T14:06:25;100117.75;;;18.81
67599;BMP280;62026;39.230;9.122;2023-04-03T14:08:52;100116.19;;;18.80
67599;BMP280;62026;39.230;9.122;2023-04-03T14:11:22;100106.06;;;18.77
67599;BMP280;62026;39.230;9.122;2023-04-03T14:13:50;100123.16;;;18.76
67599;BMP280;62026;39.230;9.122;2023-04-03T14:16:24;100118.16;;;18.69
67599;BMP280;62026;39.230;9.122;2023-04-03T14:18:53;100124.88;;;18.61
67599;BMP280;62026;39.230;9.122;2023-04-03T14:21:20;100118.75;;;18.61
67599;BMP280;62026;39.230;9.122;2023-04-03T14:23:48;100118.19;;;18.64
67599;BMP280;62026;39.230;9.122;2023-04-03T14:26:18;100117.41;;;18.58
67599;BMP280;62026;39.230;9.122;2023-04-03T14:28:49;100117.47;;;18.53
67599;BMP280;62026;39.230;9.122;2023-04-03T14:31:16;100128.66;;;18.60
67599;BMP280;62026;39.230;9.122;2023-04-03T14:33:44;100113.91;;;18.63
67599;BMP280;62026;39.230;9.122;2023-04-03T14:36:22;100114.75;;;18.58
67599;BMP280;62026;39.230;9.122;2023-04-03T14:38:51;100119.94;;;18.45
67599;BMP280;62026;39.230;9.122;2023-04-03T14:41:22;100121.84;;;18.39
67599;BMP280;62026;39.230;9.122;2023-04-03T14:43:50;100140.03;;;18.37
67599;BMP280;62026;39.230;9.122;2023-04-03T14:46:39;100146.47;;;18.31
67599;BMP280;62026;39.230;9.122;2023-04-03T14:49:19;100140.34;;;18.31
67599;BMP280;62026;39.230;9.122;2023-04-03T14:51:47;100146.22;;;18.27
67599;BMP280;62026;39.230;9.122;2023-04-03T14:54:17;100155.09;;;18.23
67599;BMP280;62026;39.230;9.122;2023-04-03T14:56:45;100153.97;;;18.29
67599;BMP280;62026;39.230;9.122;2023-04-03T14:59:14;100165.19;;;18.31
67599;BMP280;62026;39.230;9.122;2023-04-03T15:01:40;100171.63;;;18.20
67599;BMP280;62026;39.230;9.122;2023-04-03T15:04:14;100174.34;;;18.15
67599;BMP280;62026;39.230;9.122;2023-04-03T15:06:42;100207.63;;;17.68
67599;BMP280;62026;39.230;9.122;2023-04-03T15:09:25;100195.28;;;16.56
67599;BMP280;62026;39.230;9.122;2023-04-03T15:11:53;100172.94;;;16.62
67599;BMP280;62026;39.230;9.122;2023-04-03T15:14:21;100174.03;;;16.96
67599;BMP280;62026;39.230;9.122;2023-04-03T15:16:48;100169.22;;;16.83
67599;BMP280;62026;39.230;9.122;2023-04-03T15:19:14;100178.03;;;16.68
67599;BMP280;62026;39.230;9.122;2023-04-03T15:21:40;100175.53;;;16.41
67599;BMP280;62026;39.230;9.122;2023-04-03T15:24:06;100181.13;;;16.40
67599;BMP280;62026;39.230;9.122;2023-04-03T15:26:33;100177.50;;;16.04
67599;BMP280;62026;39.230;9.122;2023-04-03T15:28:59;100173.13;;;16.45
67599;BMP280;62026;39.230;9.122;2023-04-03T15:31:25;100171.25;;;16.30
67599;BMP280;62026;39.230;9.122;2023-04-03T15:33:51;100167.41;;;16.01
67599;BMP280;62026;39.230;9.122;2023-04-03T15:36:17;100166.53;;;15.90
67599;BMP280;62026;39.230;9.122;2023-04-03T15:38:43;100168.81;;;16.29
67599;BMP280;62026;39.230;9.122;2023-04-03T15:41:09;100180.41;;;16.75
67599;BMP280;62026;39.230;9.122;2023-04-03T15:43:35;100188.31;;;16.44
67599;BMP280;62026;39.230;9.122;2023-04-03T15:46:02;100193.97;;;16.58
67599;BMP280;62026;39.230;9.122;2023-04-03T15:48:29;100195.28;;;16.66
67599;BMP280;62026;39.230;9.122;2023-04-03T15:50:56;100200.06;;;16.48
67599;BMP280;62026;39.230;9.122;2023-04-03T15:53:22;100188.19;;;16.14
67599;BMP280;62026;39.230;9.122;2023-04-03T15:55:48;100188.22;;;16.19
67599;BMP280;62026;39.230;9.122;2023-04-03T15:58:14;100187.56;;;16.49